createdAt,value
2019-02-19T00:01:57.765Z,4.10
2019-02-19T00:04:46.019Z,4.00
2019-02-19T00:07:34.464Z,4.00
2019-02-19T00:10:15.835Z,4.00
2019-02-19T00:15:50.094Z,3.90
2019-02-19T00:18:38.762Z,3.90
2019-02-19T00:21:27.404Z,3.90
2019-02-19T00:24:15.792Z,3.70
2019-02-19T00:27:03.832Z,3.90
2019-02-19T00:29:52.261Z,4.00
2019-02-19T00:32:39.911Z,3.90
2019-02-19T00:35:28.329Z,3.90
2019-02-19T00:38:18.496Z,3.70
2019-02-19T00:40:48.746Z,3.70
2019-02-19T00:43:37.310Z,3.60
2019-02-19T00:49:14.533Z,3.60
2019-02-19T00:52:02.898Z,3.60
2019-02-19T00:55:09.167Z,3.70
2019-02-19T00:57:57.627Z,3.60
2019-02-19T01:00:46.642Z,3.70
2019-02-19T01:03:35.788Z,3.60
2019-02-19T01:06:24.542Z,3.50
2019-02-19T01:09:12.987Z,3.40
2019-02-19T01:12:01.532Z,3.50
2019-02-19T01:14:49.978Z,3.30
2019-02-19T01:17:38.369Z,3.30
2019-02-19T01:20:26.814Z,3.30
2019-02-19T01:23:15.283Z,3.30
2019-02-19T01:26:03.711Z,3.40
2019-02-19T01:28:52.165Z,3.30
2019-02-19T01:31:40.587Z,3.30
2019-02-19T01:34:29.058Z,3.40
2019-02-19T01:37:17.442Z,3.30
2019-02-19T01:40:05.994Z,3.20
2019-02-19T01:42:54.427Z,3.20
2019-02-19T01:46:18.210Z,3.20
2019-02-19T01:49:06.670Z,3.20
2019-02-19T01:54:43.893Z,3.00
2019-02-19T01:57:32.325Z,3.00
2019-02-19T02:03:50.628Z,2.90
2019-02-19T02:06:39.410Z,3.00
2019-02-19T02:09:22.527Z,3.00
2019-02-19T02:12:03.793Z,2.90
2019-02-19T02:14:44.471Z,2.90
2019-02-19T02:20:44.402Z,2.90
2019-02-19T02:26:30.684Z,2.90
2019-02-19T02:29:12.051Z,3.10
2019-02-19T02:31:53.285Z,3.30
2019-02-19T02:34:33.919Z,3.30
2019-02-19T02:37:14.672Z,3.30
2019-02-19T02:39:55.916Z,3.40
2019-02-19T02:42:37.092Z,3.40
2019-02-19T02:45:36.679Z,3.30
2019-02-19T02:48:18.109Z,3.30
2019-02-19T02:54:03.860Z,3.10
2019-02-19T03:00:03.807Z,3.00
2019-02-19T03:02:45.392Z,2.90
2019-02-19T03:05:26.836Z,3.10
2019-02-19T03:08:08.550Z,3.10
2019-02-19T03:10:50.075Z,3.10
2019-02-19T03:13:29.633Z,3.10
2019-02-19T03:16:18.403Z,3.10
2019-02-19T03:19:07.234Z,3.00
2019-02-19T03:21:55.683Z,3.00
2019-02-19T03:24:43.250Z,2.90
2019-02-19T03:27:31.603Z,2.90
2019-02-19T03:30:20.095Z,2.90
2019-02-19T03:33:08.844Z,2.80
2019-02-19T03:35:58.926Z,2.80
2019-02-19T03:38:47.358Z,2.80
2019-02-19T03:41:35.820Z,2.80
2019-02-19T03:44:24.287Z,2.90
2019-02-19T03:47:12.717Z,3.00
2019-02-19T03:50:01.162Z,3.00
2019-02-19T03:52:49.508Z,3.10
2019-02-19T03:55:37.895Z,3.10
2019-02-19T04:01:15.506Z,2.60
2019-02-19T04:04:03.958Z,2.30
2019-02-19T04:06:52.338Z,2.20
2019-02-19T04:09:33.695Z,2.00
2019-02-19T04:12:03.011Z,1.70
2019-02-19T04:14:51.771Z,1.50
2019-02-19T04:20:46.438Z,1.40
2019-02-19T04:23:34.791Z,1.40
2019-02-19T04:26:23.178Z,1.30
2019-02-19T04:29:11.885Z,1.20
2019-02-19T04:32:00.526Z,1.20
2019-02-19T04:34:48.965Z,1.10
2019-02-19T04:40:26.109Z,1.00
2019-02-19T04:43:14.559Z,0.90
2019-02-19T04:46:02.941Z,0.90
2019-02-19T04:48:51.391Z,1.00
2019-02-19T04:51:40.417Z,1.00
2019-02-19T04:54:28.774Z,1.00
2019-02-19T04:57:17.230Z,1.00
2019-02-19T05:00:06.434Z,0.90
2019-02-19T05:02:54.794Z,0.90
2019-02-19T05:05:43.274Z,0.80
2019-02-19T05:11:13.636Z,0.80
2019-02-19T05:13:55.523Z,0.80
2019-02-19T05:16:40.651Z,0.90
2019-02-19T05:19:19.486Z,0.90
2019-02-19T05:22:01.199Z,1.00
2019-02-19T05:28:02.003Z,1.20
2019-02-19T05:30:43.740Z,1.30
2019-02-19T05:33:25.142Z,1.50
2019-02-19T05:39:14.370Z,1.60
2019-02-19T05:41:44.249Z,1.50
2019-02-19T05:44:32.658Z,1.40
2019-02-19T05:47:21.122Z,1.40
2019-02-19T05:52:58.353Z,1.30
2019-02-19T05:55:46.786Z,1.40
2019-02-19T05:58:35.231Z,1.50
2019-02-19T06:01:23.710Z,1.40
2019-02-19T06:04:12.154Z,1.40
2019-02-19T06:07:00.630Z,1.30
2019-02-19T06:13:01.406Z,1.30
2019-02-19T06:15:41.970Z,1.20
2019-02-19T06:18:22.768Z,1.20
2019-02-19T06:21:03.707Z,1.30
2019-02-19T06:23:45.222Z,1.30
2019-02-19T06:29:34.561Z,1.50
2019-02-19T06:38:28.716Z,1.90
2019-02-19T06:44:15.225Z,1.90
2019-02-19T06:46:56.722Z,1.90
2019-02-19T06:52:59.747Z,2.10
2019-02-19T06:55:40.354Z,2.20
2019-02-19T06:58:21.323Z,2.20
2019-02-19T07:01:02.839Z,2.30
2019-02-19T07:03:47.752Z,2.50
2019-02-19T07:06:30.671Z,2.60
2019-02-19T07:12:17.177Z,2.90
2019-02-19T07:14:57.906Z,3.20
2019-02-19T07:17:39.347Z,3.30
2019-02-19T07:20:20.642Z,3.50
2019-02-19T07:25:55.025Z,3.80
2019-02-19T07:35:44.728Z,4.10
2019-02-19T07:38:33.681Z,4.20
2019-02-19T07:41:23.198Z,4.30
2019-02-19T07:44:11.723Z,4.30
2019-02-19T07:47:00.536Z,4.30
2019-02-19T07:49:49.025Z,4.40
2019-02-19T07:52:37.498Z,4.50
2019-02-19T07:59:09.987Z,4.80
2019-02-19T08:01:39.354Z,4.80
2019-02-19T08:04:27.386Z,4.80
2019-02-19T08:07:15.814Z,5.00
2019-02-19T08:13:04.905Z,5.50
2019-02-19T08:15:45.632Z,5.50
2019-02-19T08:18:26.524Z,5.60
2019-02-19T08:21:07.938Z,5.60
2019-02-19T08:23:48.572Z,5.60
2019-02-19T08:26:48.871Z,5.70
2019-02-19T08:29:30.225Z,5.90
2019-02-19T08:32:11.809Z,6.00
2019-02-19T08:34:53.191Z,6.30
2019-02-19T08:37:33.746Z,6.70
2019-02-19T08:40:13.537Z,7.00
2019-02-19T08:43:01.912Z,7.40
2019-02-19T08:45:50.635Z,7.70
2019-02-19T08:48:39.150Z,7.90
2019-02-19T08:51:28.230Z,8.00
2019-02-19T08:54:16.644Z,8.20
2019-02-19T08:57:05.075Z,8.20
2019-02-19T08:59:53.780Z,8.30
2019-02-19T09:05:53.921Z,8.80
2019-02-19T09:08:42.522Z,9.30
2019-02-19T09:11:23.707Z,9.40
2019-02-19T09:14:04.867Z,9.50
2019-02-19T09:16:46.353Z,9.60
2019-02-19T09:19:27.035Z,9.60
2019-02-19T09:22:07.878Z,9.80
2019-02-19T09:24:48.495Z,10.00
2019-02-19T09:27:29.259Z,10.40
2019-02-19T09:30:10.270Z,10.60
2019-02-19T09:32:51.420Z,11.00
2019-02-19T09:35:32.156Z,11.10
2019-02-19T09:41:20.070Z,11.20
2019-02-19T09:44:08.691Z,11.40
2019-02-19T09:46:57.066Z,11.50
2019-02-19T09:49:45.666Z,11.60
2019-02-19T09:52:34.817Z,11.90
2019-02-19T09:55:23.291Z,11.90
2019-02-19T09:58:12.197Z,11.80
2019-02-19T10:01:00.646Z,11.70
2019-02-19T10:03:49.083Z,11.80
2019-02-19T10:06:37.564Z,11.70
2019-02-19T10:09:18.454Z,11.70
2019-02-19T10:15:18.881Z,11.30
2019-02-19T10:21:06.758Z,11.30
2019-02-19T10:26:44.012Z,10.90
2019-02-19T10:29:32.394Z,10.70
2019-02-19T10:32:20.854Z,10.60
2019-02-19T10:35:09.725Z,10.70
2019-02-19T10:40:46.959Z,10.70
2019-02-19T10:46:23.015Z,10.50
2019-02-19T10:49:11.439Z,10.70
2019-02-19T10:51:59.833Z,11.10
2019-02-19T10:55:05.790Z,11.10
2019-02-19T10:57:54.149Z,11.10
2019-02-19T11:01:00.058Z,11.20
2019-02-19T11:03:48.528Z,11.10
2019-02-19T11:06:39.006Z,11.20
2019-02-19T11:09:20.527Z,11.10
2019-02-19T11:12:01.444Z,11.30
2019-02-19T11:14:42.903Z,11.20
2019-02-19T11:20:29.644Z,11.20
2019-02-19T11:23:11.151Z,11.50
2019-02-19T11:28:57.200Z,11.70
2019-02-19T11:34:42.471Z,11.20
2019-02-19T11:37:24.008Z,11.30
2019-02-19T11:40:24.294Z,11.10
2019-02-19T11:43:05.798Z,11.40
2019-02-19T11:45:46.502Z,11.40
2019-02-19T11:48:46.119Z,11.40
2019-02-19T11:51:16.298Z,11.20
2019-02-19T11:54:04.739Z,11.00
2019-02-19T11:56:53.211Z,10.80
2019-02-19T11:59:42.264Z,10.60
2019-02-19T12:02:33.212Z,10.40
2019-02-19T12:05:22.243Z,10.20
2019-02-19T12:08:09.202Z,10.00
2019-02-19T12:10:51.018Z,10.00
2019-02-19T12:16:52.451Z,10.10
2019-02-19T12:19:33.475Z,10.00
2019-02-19T12:28:29.709Z,10.00
2019-02-19T12:34:15.775Z,10.10
2019-02-19T12:40:01.719Z,10.30
2019-02-19T12:42:42.646Z,10.20
2019-02-19T12:45:24.494Z,10.40
2019-02-19T12:48:05.235Z,10.10
2019-02-19T12:50:34.538Z,9.90
2019-02-19T12:53:23.284Z,9.90
2019-02-19T12:56:48.492Z,9.90
2019-02-19T12:59:36.924Z,9.90
2019-02-19T13:02:25.803Z,9.80
2019-02-19T13:08:20.728Z,9.60
2019-02-19T13:10:50.144Z,9.60
2019-02-19T13:13:38.607Z,9.60
2019-02-19T13:16:44.516Z,9.50
2019-02-19T13:23:21.938Z,9.30
2019-02-19T13:25:51.269Z,9.40
2019-02-19T13:28:39.711Z,9.40
2019-02-19T13:31:28.135Z,9.40
2019-02-19T13:34:53.098Z,9.70
2019-02-19T13:37:40.751Z,9.80
2019-02-19T13:40:29.241Z,9.80
2019-02-19T13:42:58.998Z,10.10
2019-02-19T13:46:04.994Z,10.20
2019-02-19T13:52:43.892Z,9.90
2019-02-19T13:56:07.389Z,10.10
2019-02-19T13:59:13.562Z,10.20
2019-02-19T14:04:50.738Z,10.20
2019-02-19T14:17:12.155Z,10.50
2019-02-19T14:20:00.923Z,10.60
2019-02-19T14:23:09.943Z,10.60
2019-02-19T14:32:34.194Z,10.80
2019-02-19T14:44:14.945Z,10.80
2019-02-19T14:54:37.326Z,10.30
2019-02-19T14:57:36.002Z,10.30
2019-02-19T15:10:15.338Z,9.90
2019-02-19T15:13:15.326Z,9.90
2019-02-19T15:16:05.756Z,9.90
2019-02-19T15:22:08.738Z,9.80
2019-02-19T15:25:17.316Z,9.90
2019-02-19T15:28:25.845Z,9.90
2019-02-19T15:31:34.298Z,9.80
2019-02-19T15:34:41.674Z,9.60
2019-02-19T15:41:13.798Z,9.50
2019-02-19T15:44:21.195Z,9.60
2019-02-19T15:50:15.675Z,9.50
2019-02-19T15:53:23.052Z,9.50
2019-02-19T15:56:30.735Z,9.50
2019-02-19T15:59:26.768Z,9.50
2019-02-19T16:05:36.411Z,9.30
2019-02-19T16:11:25.100Z,9.30
2019-02-19T16:14:25.228Z,9.30
2019-02-19T16:17:31.443Z,9.20
2019-02-19T16:23:25.388Z,9.20
2019-02-19T16:29:44.692Z,9.00
2019-02-19T16:32:52.272Z,9.00
2019-02-19T16:35:40.401Z,8.90
2019-02-19T16:41:17.866Z,8.80
2019-02-19T16:47:25.420Z,8.80
2019-02-19T16:50:13.872Z,8.70
2019-02-19T16:56:17.927Z,8.60
2019-02-19T17:02:50.429Z,8.50
2019-02-19T17:05:38.118Z,8.40
2019-02-19T17:12:03.523Z,8.30
2019-02-19T17:14:51.895Z,8.20
2019-02-19T17:21:09.071Z,8.00
2019-02-19T17:31:02.204Z,7.80
2019-02-19T17:34:09.852Z,7.90
2019-02-19T17:40:09.595Z,7.80
2019-02-19T17:43:03.787Z,7.70
2019-02-19T17:46:11.145Z,7.60
2019-02-19T17:49:18.539Z,7.40
2019-02-19T17:55:37.892Z,7.10
2019-02-19T17:58:45.299Z,7.10
2019-02-19T18:01:52.726Z,7.10
2019-02-19T18:05:00.429Z,6.90
2019-02-19T18:08:25.793Z,6.90
2019-02-19T18:11:26.324Z,6.90
2019-02-19T18:14:21.014Z,6.80
2019-02-19T18:17:20.597Z,6.70
2019-02-19T18:20:02.018Z,6.80
2019-02-19T18:22:42.780Z,6.80
2019-02-19T18:25:23.563Z,6.70
2019-02-19T18:28:05.143Z,6.60
2019-02-19T18:30:46.812Z,6.70
2019-02-19T18:33:28.230Z,6.60
2019-02-19T18:39:31.618Z,6.50
2019-02-19T18:42:12.945Z,6.40
2019-02-19T18:44:53.839Z,6.20
2019-02-19T18:47:35.311Z,6.10
2019-02-19T18:50:15.882Z,6.00
2019-02-19T18:52:56.670Z,5.90
2019-02-19T18:55:38.020Z,5.80
2019-02-19T18:58:19.561Z,5.70
2019-02-19T19:04:19.825Z,5.50
2019-02-19T19:07:01.274Z,5.50
2019-02-19T19:09:42.758Z,5.60
2019-02-19T19:12:42.878Z,5.50
2019-02-19T19:15:24.341Z,5.30
2019-02-19T19:18:05.757Z,5.20
2019-02-19T19:20:47.126Z,5.20
2019-02-19T19:23:28.705Z,5.10
2019-02-19T19:29:28.706Z,5.10
2019-02-19T19:32:10.519Z,5.10
2019-02-19T19:34:51.492Z,5.10
2019-02-19T19:37:32.565Z,5.10
2019-02-19T19:43:22.162Z,5.10
2019-02-19T19:46:03.616Z,5.00
2019-02-19T19:48:45.973Z,5.00
2019-02-19T19:51:27.302Z,4.90
2019-02-19T19:54:08.466Z,4.90
2019-02-19T19:56:49.804Z,4.90
2019-02-19T20:05:44.927Z,4.70
2019-02-19T20:17:48.202Z,4.70
2019-02-19T20:20:29.608Z,4.70
2019-02-19T20:23:11.471Z,4.60
2019-02-19T20:25:52.344Z,4.60
2019-02-19T20:35:00.994Z,4.60
2019-02-19T20:38:01.487Z,4.60
2019-02-19T20:43:46.941Z,4.40
2019-02-19T20:46:28.495Z,4.40
2019-02-19T20:49:09.942Z,4.40
2019-02-19T20:51:50.711Z,4.40
2019-02-19T20:54:32.462Z,4.50
2019-02-19T20:57:13.427Z,4.40
2019-02-19T21:00:13.929Z,4.40
2019-02-19T21:02:55.320Z,4.50
2019-02-19T21:08:44.468Z,4.70
2019-02-19T21:11:27.546Z,4.80
2019-02-19T21:17:27.198Z,4.50
2019-02-19T21:20:07.849Z,4.70
2019-02-19T21:22:49.223Z,4.60
2019-02-19T21:25:31.263Z,4.60
2019-02-19T21:28:12.577Z,4.60
2019-02-19T21:34:02.092Z,4.50
2019-02-19T21:39:48.669Z,4.30
2019-02-19T21:42:49.381Z,4.20
2019-02-19T21:45:30.722Z,4.20
2019-02-19T21:48:11.480Z,4.10
2019-02-19T21:50:53.028Z,4.00
2019-02-19T21:53:34.657Z,4.00
2019-02-19T21:56:16.147Z,4.00
2019-02-19T22:02:16.555Z,3.90
2019-02-19T22:04:58.202Z,3.80
2019-02-19T22:10:48.046Z,3.90
2019-02-19T22:13:29.602Z,4.00
2019-02-19T22:16:10.891Z,4.00
2019-02-19T22:18:51.890Z,3.90
2019-02-19T22:21:52.080Z,3.90
2019-02-19T22:24:39.720Z,3.90
2019-02-19T22:27:21.424Z,3.90
2019-02-19T22:30:00.951Z,3.90
2019-02-19T22:32:49.388Z,3.90
2019-02-19T22:35:38.200Z,3.80
2019-02-19T22:38:26.870Z,3.80
2019-02-19T22:41:15.326Z,3.80
2019-02-19T22:44:21.283Z,3.70
2019-02-19T22:47:09.674Z,3.80
2019-02-19T22:49:59.343Z,3.70
2019-02-19T22:52:47.818Z,3.70
2019-02-19T22:55:55.177Z,3.60
2019-02-19T22:59:01.379Z,3.50
2019-02-19T23:04:49.874Z,3.50
2019-02-19T23:07:38.243Z,3.40
2019-02-19T23:10:19.304Z,3.40
2019-02-19T23:12:59.864Z,3.50
2019-02-19T23:15:59.550Z,3.50
2019-02-19T23:18:40.830Z,3.40
2019-02-19T23:21:22.302Z,3.40
2019-02-19T23:24:03.031Z,3.50
2019-02-19T23:29:51.362Z,3.50
2019-02-19T23:32:40.198Z,3.40
2019-02-19T23:39:11.674Z,3.30
2019-02-19T23:42:00.115Z,3.30
2019-02-19T23:44:48.076Z,3.30
2019-02-19T23:47:38.032Z,3.20
2019-02-19T23:50:09.057Z,3.10
2019-02-19T23:52:57.492Z,3.00
2019-02-19T23:55:27.098Z,3.00
2019-02-19T23:58:15.804Z,2.90
